sensor_id;sensor_type;location;lat;lon;timestamp;P1;durP1;ratioP1;P2;durP2;ratioP2
55148;SDS011;49539;48.160;11.530;2023-03-01T00:01:05;22.33;;;13.68;;
55148;SDS011;49539;48.160;11.530;2023-03-01T00:03:30;24.17;;;14.00;;
55148;SDS011;49539;48.160;11.530;2023-03-01T00:05:56;21.77;;;12.35;;
55148;SDS011;49539;48.160;11.530;2023-03-01T00:08:22;24.85;;;14.45;;
55148;SDS011;49539;48.160;11.530;2023-03-01T00:10:47;26.30;;;14.13;;
55148;SDS011;49539;48.160;11.530;2023-03-01T00:13:12;23.88;;;13.77;;
55148;SDS011;49539;48.160;11.530;2023-03-01T00:15:38;26.35;;;14.52;;
55148;SDS011;49539;48.160;11.530;2023-03-01T00:18:04;24.17;;;14.18;;
55148;SDS011;49539;48.160;11.530;2023-03-01T00:20:29;23.13;;;14.13;;
55148;SDS011;49539;48.160;11.530;2023-03-01T00:22:54;27.52;;;14.65;;
55148;SDS011;49539;48.160;11.530;2023-03-01T00:25:20;24.42;;;13.93;;
55148;SDS011;49539;48.160;11.530;2023-03-01T00:27:46;27.15;;;15.02;;
55148;SDS011;49539;48.160;11.530;2023-03-01T00:30:11;25.13;;;13.23;;
55148;SDS011;49539;48.160;11.530;2023-03-01T00:32:37;24.27;;;13.98;;
55148;SDS011;49539;48.160;11.530;2023-03-01T00:35:04;24.77;;;13.38;;
55148;SDS011;49539;48.160;11.530;2023-03-01T00:37:31;26.92;;;14.68;;
55148;SDS011;49539;48.160;11.530;2023-03-01T00:39:56;22.80;;;13.90;;
55148;SDS011;49539;48.160;11.530;2023-03-01T00:42:22;24.38;;;13.68;;
55148;SDS011;49539;48.160;11.530;2023-03-01T00:44:48;31.85;;;15.13;;
55148;SDS011;49539;48.160;11.530;2023-03-01T00:47:13;28.60;;;15.00;;
55148;SDS011;49539;48.160;11.530;2023-03-01T00:49:39;21.80;;;12.98;;
55148;SDS011;49539;48.160;11.530;2023-03-01T00:52:04;24.70;;;14.98;;
55148;SDS011;49539;48.160;11.530;2023-03-01T00:54:30;24.95;;;14.05;;
55148;SDS011;49539;48.160;11.530;2023-03-01T00:56:55;25.70;;;14.90;;
55148;SDS011;49539;48.160;11.530;2023-03-01T00:59:20;27.48;;;13.77;;
55148;SDS011;49539;48.160;11.530;2023-03-01T01:01:45;21.60;;;14.00;;
55148;SDS011;49539;48.160;11.530;2023-03-01T01:04:12;26.13;;;13.48;;
55148;SDS011;49539;48.160;11.530;2023-03-01T01:06:41;26.60;;;13.52;;
55148;SDS011;49539;48.160;11.530;2023-03-01T01:09:08;24.60;;;14.10;;
55148;SDS011;49539;48.160;11.530;2023-03-01T01:11:33;23.67;;;13.40;;
55148;SDS011;49539;48.160;11.530;2023-03-01T01:14:00;23.95;;;13.80;;
55148;SDS011;49539;48.160;11.530;2023-03-01T01:16:26;22.95;;;13.48;;
55148;SDS011;49539;48.160;11.530;2023-03-01T01:18:52;24.05;;;13.80;;
55148;SDS011;49539;48.160;11.530;2023-03-01T01:21:18;26.13;;;14.60;;
55148;SDS011;49539;48.160;11.530;2023-03-01T01:23:44;27.73;;;14.60;;
55148;SDS011;49539;48.160;11.530;2023-03-01T01:26:11;30.73;;;14.73;;
55148;SDS011;49539;48.160;11.530;2023-03-01T01:28:36;29.70;;;15.10;;
55148;SDS011;49539;48.160;11.530;2023-03-01T01:31:02;28.33;;;15.07;;
55148;SDS011;49539;48.160;11.530;2023-03-01T01:33:27;22.55;;;13.85;;
55148;SDS011;49539;48.160;11.530;2023-03-01T01:35:53;26.95;;;14.40;;
55148;SDS011;49539;48.160;11.530;2023-03-01T01:38:18;26.13;;;15.00;;
55148;SDS011;49539;48.160;11.530;2023-03-01T01:40:44;24.20;;;13.70;;
55148;SDS011;49539;48.160;11.530;2023-03-01T01:43:23;22.42;;;13.52;;
55148;SDS011;49539;48.160;11.530;2023-03-01T01:45:49;26.63;;;14.50;;
55148;SDS011;49539;48.160;11.530;2023-03-01T01:48:16;28.48;;;14.85;;
55148;SDS011;49539;48.160;11.530;2023-03-01T01:50:43;28.83;;;14.73;;
55148;SDS011;49539;48.160;11.530;2023-03-01T01:53:15;24.08;;;14.30;;
55148;SDS011;49539;48.160;11.530;2023-03-01T01:55:42;25.25;;;14.63;;
55148;SDS011;49539;48.160;11.530;2023-03-01T01:58:08;25.27;;;13.73;;
55148;SDS011;49539;48.160;11.530;2023-03-01T02:00:35;29.33;;;15.27;;
55148;SDS011;49539;48.160;11.530;2023-03-01T02:03:08;25.40;;;14.50;;
55148;SDS011;49539;48.160;11.530;2023-03-01T02:08:03;26.95;;;15.43;;
55148;SDS011;49539;48.160;11.530;2023-03-01T02:10:28;26.02;;;14.60;;
55148;SDS011;49539;48.160;11.530;2023-03-01T02:12:54;25.95;;;14.63;;
55148;SDS011;49539;48.160;11.530;2023-03-01T02:15:21;25.63;;;13.32;;
55148;SDS011;49539;48.160;11.530;2023-03-01T02:17:46;28.25;;;15.23;;
55148;SDS011;49539;48.160;11.530;2023-03-01T02:23:01;24.88;;;14.50;;
55148;SDS011;49539;48.160;11.530;2023-03-01T02:30:40;28.20;;;13.55;;
55148;SDS011;49539;48.160;11.530;2023-03-01T02:33:25;26.23;;;14.95;;
55148;SDS011;49539;48.160;11.530;2023-03-01T02:35:51;23.20;;;13.60;;
55148;SDS011;49539;48.160;11.530;2023-03-01T02:38:18;25.63;;;14.38;;
55148;SDS011;49539;48.160;11.530;2023-03-01T02:40:43;25.48;;;13.35;;
55148;SDS011;49539;48.160;11.530;2023-03-01T02:43:10;26.75;;;14.82;;
55148;SDS011;49539;48.160;11.530;2023-03-01T02:45:36;30.48;;;13.13;;
55148;SDS011;49539;48.160;11.530;2023-03-01T02:48:02;24.90;;;14.32;;
55148;SDS011;49539;48.160;11.530;2023-03-01T02:52:55;23.92;;;14.73;;
55148;SDS011;49539;48.160;11.530;2023-03-01T02:55:22;30.67;;;15.38;;
55148;SDS011;49539;48.160;11.530;2023-03-01T02:57:47;26.38;;;14.23;;
55148;SDS011;49539;48.160;11.530;2023-03-01T03:00:20;25.20;;;14.88;;
55148;SDS011;49539;48.160;11.530;2023-03-01T03:02:47;27.13;;;13.77;;
55148;SDS011;49539;48.160;11.530;2023-03-01T03:05:20;28.45;;;15.00;;
55148;SDS011;49539;48.160;11.530;2023-03-01T03:07:47;29.90;;;14.93;;
55148;SDS011;49539;48.160;11.530;2023-03-01T03:10:20;21.88;;;12.98;;
55148;SDS011;49539;48.160;11.530;2023-03-01T03:12:52;25.55;;;14.55;;
55148;SDS011;49539;48.160;11.530;2023-03-01T03:15:18;25.80;;;14.88;;
55148;SDS011;49539;48.160;11.530;2023-03-01T03:17:43;28.95;;;14.45;;
55148;SDS011;49539;48.160;11.530;2023-03-01T03:20:10;33.97;;;15.43;;
55148;SDS011;49539;48.160;11.530;2023-03-01T03:22:39;32.97;;;15.05;;
55148;SDS011;49539;48.160;11.530;2023-03-01T03:25:06;23.27;;;13.98;;
55148;SDS011;49539;48.160;11.530;2023-03-01T03:27:35;24.98;;;15.18;;
55148;SDS011;49539;48.160;11.530;2023-03-01T03:30:01;25.55;;;14.52;;
55148;SDS011;49539;48.160;11.530;2023-03-01T03:32:26;28.67;;;13.90;;
55148;SDS011;49539;48.160;11.530;2023-03-01T03:34:51;23.67;;;14.18;;
55148;SDS011;49539;48.160;11.530;2023-03-01T03:37:16;29.55;;;15.40;;
55148;SDS011;49539;48.160;11.530;2023-03-01T03:40:00;30.17;;;15.63;;
55148;SDS011;49539;48.160;11.530;2023-03-01T03:42:25;24.33;;;14.40;;
55148;SDS011;49539;48.160;11.530;2023-03-01T03:44:51;27.45;;;15.82;;
55148;SDS011;49539;48.160;11.530;2023-03-01T03:47:16;24.83;;;14.18;;
55148;SDS011;49539;48.160;11.530;2023-03-01T03:49:41;24.13;;;14.45;;
55148;SDS011;49539;48.160;11.530;2023-03-01T03:52:07;27.15;;;15.85;;
55148;SDS011;49539;48.160;11.530;2023-03-01T03:54:39;27.83;;;16.55;;
55148;SDS011;49539;48.160;11.530;2023-03-01T03:57:04;29.63;;;15.50;;
55148;SDS011;49539;48.160;11.530;2023-03-01T03:59:29;23.80;;;14.52;;
55148;SDS011;49539;48.160;11.530;2023-03-01T04:01:54;27.08;;;15.30;;
55148;SDS011;49539;48.160;11.530;2023-03-01T04:04:20;24.42;;;14.25;;
55148;SDS011;49539;48.160;11.530;2023-03-01T04:06:45;25.63;;;14.70;;
55148;SDS011;49539;48.160;11.530;2023-03-01T04:09:11;28.73;;;15.43;;
55148;SDS011;49539;48.160;11.530;2023-03-01T04:11:36;28.45;;;16.40;;
55148;SDS011;49539;48.160;11.530;2023-03-01T04:14:03;23.55;;;14.13;;
55148;SDS011;49539;48.160;11.530;2023-03-01T04:16:29;26.70;;;14.95;;
55148;SDS011;49539;48.160;11.530;2023-03-01T04:18:54;26.95;;;15.85;;
55148;SDS011;49539;48.160;11.530;2023-03-01T04:21:20;30.77;;;16.20;;
55148;SDS011;49539;48.160;11.530;2023-03-01T04:23:45;25.88;;;14.65;;
55148;SDS011;49539;48.160;11.530;2023-03-01T04:26:10;23.13;;;13.18;;
55148;SDS011;49539;48.160;11.530;2023-03-01T04:28:37;24.33;;;13.70;;
55148;SDS011;49539;48.160;11.530;2023-03-01T04:31:06;27.75;;;15.10;;
55148;SDS011;49539;48.160;11.530;2023-03-01T04:33:38;28.73;;;15.90;;
55148;SDS011;49539;48.160;11.530;2023-03-01T04:36:05;28.60;;;15.38;;
55148;SDS011;49539;48.160;11.530;2023-03-01T04:38:33;26.63;;;15.90;;
55148;SDS011;49539;48.160;11.530;2023-03-01T04:40:59;28.58;;;14.18;;
55148;SDS011;49539;48.160;11.530;2023-03-01T04:43:24;26.23;;;15.35;;
55148;SDS011;49539;48.160;11.530;2023-03-01T04:45:49;30.48;;;15.25;;
55148;SDS011;49539;48.160;11.530;2023-03-01T04:48:15;30.35;;;15.45;;
55148;SDS011;49539;48.160;11.530;2023-03-01T04:50:41;24.83;;;14.38;;
55148;SDS011;49539;48.160;11.530;2023-03-01T04:53:06;29.20;;;15.30;;
55148;SDS011;49539;48.160;11.530;2023-03-01T04:55:31;27.38;;;16.02;;
55148;SDS011;49539;48.160;11.530;2023-03-01T04:58:00;27.17;;;14.95;;
55148;SDS011;49539;48.160;11.530;2023-03-01T05:00:25;26.52;;;16.05;;
55148;SDS011;49539;48.160;11.530;2023-03-01T05:02:57;29.83;;;16.95;;
55148;SDS011;49539;48.160;11.530;2023-03-01T05:05:24;26.88;;;14.45;;
55148;SDS011;49539;48.160;11.530;2023-03-01T05:07:51;27.95;;;14.43;;
55148;SDS011;49539;48.160;11.530;2023-03-01T05:10:16;30.30;;;15.55;;
55148;SDS011;49539;48.160;11.530;2023-03-01T05:12:42;28.92;;;15.98;;
55148;SDS011;49539;48.160;11.530;2023-03-01T05:15:07;26.25;;;14.35;;
55148;SDS011;49539;48.160;11.530;2023-03-01T05:17:33;37.22;;;15.90;;
55148;SDS011;49539;48.160;11.530;2023-03-01T05:19:59;27.00;;;14.68;;
55148;SDS011;49539;48.160;11.530;2023-03-01T05:22:24;27.25;;;16.02;;
55148;SDS011;49539;48.160;11.530;2023-03-01T05:24:50;26.17;;;14.82;;
55148;SDS011;49539;48.160;11.530;2023-03-01T05:27:15;25.77;;;14.95;;
55148;SDS011;49539;48.160;11.530;2023-03-01T05:29:40;28.60;;;14.82;;
55148;SDS011;49539;48.160;11.530;2023-03-01T05:32:06;29.70;;;15.63;;
55148;SDS011;49539;48.160;11.530;2023-03-01T05:34:34;28.65;;;15.30;;
55148;SDS011;49539;48.160;11.530;2023-03-01T05:37:00;24.38;;;14.23;;
55148;SDS011;49539;48.160;11.530;2023-03-01T05:39:26;26.77;;;14.20;;
55148;SDS011;49539;48.160;11.530;2023-03-01T05:41:56;29.02;;;14.52;;
55148;SDS011;49539;48.160;11.530;2023-03-01T05:44:22;26.70;;;15.07;;
55148;SDS011;49539;48.160;11.530;2023-03-01T05:46:48;30.08;;;15.80;;
55148;SDS011;49539;48.160;11.530;2023-03-01T05:49:14;31.75;;;16.67;;
55148;SDS011;49539;48.160;11.530;2023-03-01T05:51:40;30.42;;;15.82;;
55148;SDS011;49539;48.160;11.530;2023-03-01T05:54:06;26.13;;;15.68;;
55148;SDS011;49539;48.160;11.530;2023-03-01T05:56:32;27.63;;;15.82;;
55148;SDS011;49539;48.160;11.530;2023-03-01T05:58:58;26.58;;;14.93;;
55148;SDS011;49539;48.160;11.530;2023-03-01T06:01:24;29.55;;;15.70;;
55148;SDS011;49539;48.160;11.530;2023-03-01T06:03:49;26.52;;;14.63;;
55148;SDS011;49539;48.160;11.530;2023-03-01T06:06:14;29.27;;;15.45;;
55148;SDS011;49539;48.160;11.530;2023-03-01T06:08:40;28.63;;;15.30;;
55148;SDS011;49539;48.160;11.530;2023-03-01T06:11:05;24.83;;;15.30;;
55148;SDS011;49539;48.160;11.530;2023-03-01T06:13:32;32.13;;;17.02;;
55148;SDS011;49539;48.160;11.530;2023-03-01T06:15:57;29.95;;;16.50;;
55148;SDS011;49539;48.160;11.530;2023-03-01T06:18:22;27.63;;;15.30;;
55148;SDS011;49539;48.160;11.530;2023-03-01T06:20:54;29.92;;;16.17;;
55148;SDS011;49539;48.160;11.530;2023-03-01T06:23:20;26.70;;;15.52;;
55148;SDS011;49539;48.160;11.530;2023-03-01T06:25:45;28.63;;;16.52;;
55148;SDS011;49539;48.160;11.530;2023-03-01T06:28:10;26.38;;;15.52;;
55148;SDS011;49539;48.160;11.530;2023-03-01T06:30:36;28.65;;;15.63;;
55148;SDS011;49539;48.160;11.530;2023-03-01T06:33:01;28.58;;;16.40;;
55148;SDS011;49539;48.160;11.530;2023-03-01T06:35:28;31.20;;;15.85;;
55148;SDS011;49539;48.160;11.530;2023-03-01T06:37:55;26.88;;;16.00;;
55148;SDS011;49539;48.160;11.530;2023-03-01T06:40:21;29.95;;;16.40;;
55148;SDS011;49539;48.160;11.530;2023-03-01T06:42:49;30.98;;;16.75;;
55148;SDS011;49539;48.160;11.530;2023-03-01T06:45:15;31.38;;;17.58;;
55148;SDS011;49539;48.160;11.530;2023-03-01T06:47:41;29.45;;;16.70;;
55148;SDS011;49539;48.160;11.530;2023-03-01T06:50:06;30.15;;;16.58;;
55148;SDS011;49539;48.160;11.530;2023-03-01T06:52:32;33.92;;;18.10;;
55148;SDS011;49539;48.160;11.530;2023-03-01T06:54:57;29.90;;;16.98;;
55148;SDS011;49539;48.160;11.530;2023-03-01T06:57:22;30.27;;;16.42;;
55148;SDS011;49539;48.160;11.530;2023-03-01T06:59:48;35.70;;;17.67;;
55148;SDS011;49539;48.160;11.530;2023-03-01T07:02:13;25.70;;;15.35;;
55148;SDS011;49539;48.160;11.530;2023-03-01T07:04:39;26.73;;;15.48;;
55148;SDS011;49539;48.160;11.530;2023-03-01T07:07:04;26.77;;;15.57;;
55148;SDS011;49539;48.160;11.530;2023-03-01T07:09:30;30.58;;;15.70;;
55148;SDS011;49539;48.160;11.530;2023-03-01T07:11:55;28.00;;;15.45;;
55148;SDS011;49539;48.160;11.530;2023-03-01T07:14:22;30.58;;;15.70;;
55148;SDS011;49539;48.160;11.530;2023-03-01T07:16:49;31.80;;;16.52;;
55148;SDS011;49539;48.160;11.530;2023-03-01T07:19:15;26.95;;;14.85;;
55148;SDS011;49539;48.160;11.530;2023-03-01T07:21:40;29.58;;;15.55;;
55148;SDS011;49539;48.160;11.530;2023-03-01T07:24:06;36.58;;;16.02;;
55148;SDS011;49539;48.160;11.530;2023-03-01T07:26:31;27.02;;;15.23;;
55148;SDS011;49539;48.160;11.530;2023-03-01T07:28:58;27.38;;;15.48;;
55148;SDS011;49539;48.160;11.530;2023-03-01T07:31:23;27.90;;;15.18;;
55148;SDS011;49539;48.160;11.530;2023-03-01T07:33:49;30.38;;;15.98;;
55148;SDS011;49539;48.160;11.530;2023-03-01T07:36:14;29.60;;;15.18;;
55148;SDS011;49539;48.160;11.530;2023-03-01T07:38:39;30.83;;;16.02;;
55148;SDS011;49539;48.160;11.530;2023-03-01T07:41:05;26.55;;;14.93;;
55148;SDS011;49539;48.160;11.530;2023-03-01T07:43:31;27.02;;;15.27;;
55148;SDS011;49539;48.160;11.530;2023-03-01T07:45:59;34.45;;;18.30;;
55148;SDS011;49539;48.160;11.530;2023-03-01T07:48:25;32.33;;;16.08;;
55148;SDS011;49539;48.160;11.530;2023-03-01T07:50:50;23.90;;;13.90;;
55148;SDS011;49539;48.160;11.530;2023-03-01T07:53:18;33.17;;;17.20;;
55148;SDS011;49539;48.160;11.530;2023-03-01T07:55:43;29.55;;;17.02;;
55148;SDS011;49539;48.160;11.530;2023-03-01T07:58:08;28.10;;;15.15;;
55148;SDS011;49539;48.160;11.530;2023-03-01T08:00:34;31.88;;;15.52;;
55148;SDS011;49539;48.160;11.530;2023-03-01T08:02:59;31.02;;;16.77;;
55148;SDS011;49539;48.160;11.530;2023-03-01T08:05:25;27.15;;;15.48;;
55148;SDS011;49539;48.160;11.530;2023-03-01T08:07:51;27.67;;;16.35;;
55148;SDS011;49539;48.160;11.530;2023-03-01T08:10:16;28.95;;;16.40;;
55148;SDS011;49539;48.160;11.530;2023-03-01T08:12:41;27.58;;;15.60;;
55148;SDS011;49539;48.160;11.530;2023-03-01T08:15:07;28.80;;;16.35;;
55148;SDS011;49539;48.160;11.530;2023-03-01T08:17:32;32.70;;;16.50;;
55148;SDS011;49539;48.160;11.530;2023-03-01T08:19:58;32.20;;;16.60;;
55148;SDS011;49539;48.160;11.530;2023-03-01T08:22:23;29.67;;;15.50;;
55148;SDS011;49539;48.160;11.530;2023-03-01T08:24:48;27.50;;;14.98;;
55148;SDS011;49539;48.160;11.530;2023-03-01T08:27:14;37.63;;;17.65;;
55148;SDS011;49539;48.160;11.530;2023-03-01T08:29:40;27.25;;;15.60;;
55148;SDS011;49539;48.160;11.530;2023-03-01T08:32:05;32.45;;;17.10;;
55148;SDS011;49539;48.160;11.530;2023-03-01T08:34:30;29.20;;;16.40;;
55148;SDS011;49539;48.160;11.530;2023-03-01T08:36:56;33.47;;;16.90;;
55148;SDS011;49539;48.160;11.530;2023-03-01T08:39:22;30.13;;;15.90;;
55148;SDS011;49539;48.160;11.530;2023-03-01T08:41:47;28.52;;;15.65;;
55148;SDS011;49539;48.160;11.530;2023-03-01T08:44:13;33.38;;;16.38;;
55148;SDS011;49539;48.160;11.530;2023-03-01T08:46:40;32.40;;;17.35;;
55148;SDS011;49539;48.160;11.530;2023-03-01T08:49:08;29.27;;;16.15;;
55148;SDS011;49539;48.160;11.530;2023-03-01T08:51:34;24.83;;;14.55;;
55148;SDS011;49539;48.160;11.530;2023-03-01T08:54:02;33.28;;;16.88;;
55148;SDS011;49539;48.160;11.530;2023-03-01T08:56:27;30.27;;;16.23;;
55148;SDS011;49539;48.160;11.530;2023-03-01T08:58:53;32.97;;;17.70;;
55148;SDS011;49539;48.160;11.530;2023-03-01T09:01:18;31.17;;;17.27;;
55148;SDS011;49539;48.160;11.530;2023-03-01T09:03:44;30.48;;;15.75;;
55148;SDS011;49539;48.160;11.530;2023-03-01T09:06:09;29.33;;;15.48;;
55148;SDS011;49539;48.160;11.530;2023-03-01T09:08:36;28.55;;;15.77;;
55148;SDS011;49539;48.160;11.530;2023-03-01T09:11:02;27.40;;;14.05;;
55148;SDS011;49539;48.160;11.530;2023-03-01T09:13:28;33.88;;;17.48;;
55148;SDS011;49539;48.160;11.530;2023-03-01T09:15:56;31.23;;;15.57;;
55148;SDS011;49539;48.160;11.530;2023-03-01T09:18:21;27.48;;;16.08;;
55148;SDS011;49539;48.160;11.530;2023-03-01T09:20:46;33.10;;;16.92;;
55148;SDS011;49539;48.160;11.530;2023-03-01T09:23:11;29.53;;;16.30;;
55148;SDS011;49539;48.160;11.530;2023-03-01T09:25:36;27.50;;;14.30;;
55148;SDS011;49539;48.160;11.530;2023-03-01T09:28:02;26.63;;;14.63;;
55148;SDS011;49539;48.160;11.530;2023-03-01T09:30:27;29.08;;;15.32;;
55148;SDS011;49539;48.160;11.530;2023-03-01T09:32:52;27.67;;;15.48;;
55148;SDS011;49539;48.160;11.530;2023-03-01T09:35:17;28.05;;;15.48;;
55148;SDS011;49539;48.160;11.530;2023-03-01T09:37:44;33.05;;;16.08;;
55148;SDS011;49539;48.160;11.530;2023-03-01T09:40:14;27.95;;;15.02;;
55148;SDS011;49539;48.160;11.530;2023-03-01T09:42:45;28.02;;;15.70;;
55148;SDS011;49539;48.160;11.530;2023-03-01T09:45:13;30.98;;;15.15;;
55148;SDS011;49539;48.160;11.530;2023-03-01T09:47:39;29.40;;;16.50;;
55148;SDS011;49539;48.160;11.530;2023-03-01T09:52:34;24.45;;;14.95;;
55148;SDS011;49539;48.160;11.530;2023-03-01T09:55:01;32.97;;;15.90;;
55148;SDS011;49539;48.160;11.530;2023-03-01T10:02:32;32.10;;;14.00;;
55148;SDS011;49539;48.160;11.530;2023-03-01T10:05:41;30.05;;;14.70;;
55148;SDS011;49539;48.160;11.530;2023-03-01T10:08:02;23.85;;;14.30;;
55148;SDS011;49539;48.160;11.530;2023-03-01T10:10:38;29.88;;;15.07;;
55148;SDS011;49539;48.160;11.530;2023-03-01T10:13:07;30.10;;;14.23;;
55148;SDS011;49539;48.160;11.530;2023-03-01T10:15:35;25.98;;;14.43;;
55148;SDS011;49539;48.160;11.530;2023-03-01T10:18:09;27.73;;;14.52;;
55148;SDS011;49539;48.160;11.530;2023-03-01T10:20:42;27.13;;;14.30;;
55148;SDS011;49539;48.160;11.530;2023-03-01T10:23:08;24.83;;;14.23;;
55148;SDS011;49539;48.160;11.530;2023-03-01T10:30:42;29.70;;;16.88;;
55148;SDS011;49539;48.160;11.530;2023-03-01T10:33:29;25.58;;;15.30;;
55148;SDS011;49539;48.160;11.530;2023-03-01T10:35:55;27.45;;;17.02;;
55148;SDS011;49539;48.160;11.530;2023-03-01T10:38:21;25.33;;;15.63;;
55148;SDS011;49539;48.160;11.530;2023-03-01T10:40:52;32.10;;;15.77;;
55148;SDS011;49539;48.160;11.530;2023-03-01T10:43:17;27.50;;;15.13;;
55148;SDS011;49539;48.160;11.530;2023-03-01T10:45:43;28.67;;;16.40;;
55148;SDS011;49539;48.160;11.530;2023-03-01T10:48:12;28.65;;;15.77;;
55148;SDS011;49539;48.160;11.530;2023-03-01T10:50:38;31.08;;;16.13;;
55148;SDS011;49539;48.160;11.530;2023-03-01T10:53:16;29.77;;;16.33;;
55148;SDS011;49539;48.160;11.530;2023-03-01T10:55:44;26.27;;;14.40;;
55148;SDS011;49539;48.160;11.530;2023-03-01T10:58:20;28.45;;;15.50;;
55148;SDS011;49539;48.160;11.530;2023-03-01T11:00:49;27.33;;;15.55;;
55148;SDS011;49539;48.160;11.530;2023-03-01T11:03:15;32.17;;;17.88;;
55148;SDS011;49539;48.160;11.530;2023-03-01T11:05:53;32.55;;;16.15;;
55148;SDS011;49539;48.160;11.530;2023-03-01T11:08:36;25.63;;;15.82;;
55148;SDS011;49539;48.160;11.530;2023-03-01T11:11:05;27.70;;;15.98;;
55148;SDS011;49539;48.160;11.530;2023-03-01T11:13:31;34.30;;;16.85;;
55148;SDS011;49539;48.160;11.530;2023-03-01T11:16:00;34.05;;;16.90;;
55148;SDS011;49539;48.160;11.530;2023-03-01T11:18:26;31.90;;;16.15;;
55148;SDS011;49539;48.160;11.530;2023-03-01T11:20:51;32.90;;;17.63;;
55148;SDS011;49539;48.160;11.530;2023-03-01T11:23:18;29.20;;;17.23;;
55148;SDS011;49539;48.160;11.530;2023-03-01T11:26:16;25.83;;;15.82;;
55148;SDS011;49539;48.160;11.530;2023-03-01T11:28:36;29.42;;;16.38;;
55148;SDS011;49539;48.160;11.530;2023-03-01T11:31:04;29.13;;;16.17;;
55148;SDS011;49539;48.160;11.530;2023-03-01T11:33:35;31.02;;;17.67;;
55148;SDS011;49539;48.160;11.530;2023-03-01T11:36:06;29.00;;;17.63;;
55148;SDS011;49539;48.160;11.530;2023-03-01T11:38:33;29.80;;;16.30;;
55148;SDS011;49539;48.160;11.530;2023-03-01T11:41:12;26.23;;;15.52;;
55148;SDS011;49539;48.160;11.530;2023-03-01T11:51:16;28.00;;;15.37;;
55148;SDS011;49539;48.160;11.530;2023-03-01T11:53:50;32.80;;;17.42;;
55148;SDS011;49539;48.160;11.530;2023-03-01T11:56:28;30.25;;;15.63;;
55148;SDS011;49539;48.160;11.530;2023-03-01T12:04:15;21.20;;;13.67;;
55148;SDS011;49539;48.160;11.530;2023-03-01T12:09:29;24.40;;;15.10;;
55148;SDS011;49539;48.160;11.530;2023-03-01T12:12:17;27.90;;;15.52;;
55148;SDS011;49539;48.160;11.530;2023-03-01T12:25:28;25.40;;;13.77;;
55148;SDS011;49539;48.160;11.530;2023-03-01T12:35:50;28.08;;;15.88;;
55148;SDS011;49539;48.160;11.530;2023-03-01T12:41:07;23.33;;;15.02;;
55148;SDS011;49539;48.160;11.530;2023-03-01T12:51:31;24.27;;;13.97;;
55148;SDS011;49539;48.160;11.530;2023-03-01T12:53:58;23.38;;;13.88;;
55148;SDS011;49539;48.160;11.530;2023-03-01T12:56:28;24.95;;;13.55;;
55148;SDS011;49539;48.160;11.530;2023-03-01T13:04:08;24.38;;;13.40;;
55148;SDS011;49539;48.160;11.530;2023-03-01T13:11:28;24.53;;;12.93;;
55148;SDS011;49539;48.160;11.530;2023-03-01T13:16:39;20.23;;;11.25;;
55148;SDS011;49539;48.160;11.530;2023-03-01T13:21:32;21.27;;;12.20;;
55148;SDS011;49539;48.160;11.530;2023-03-01T13:23:58;23.02;;;12.50;;
55148;SDS011;49539;48.160;11.530;2023-03-01T13:26:23;22.73;;;13.70;;
55148;SDS011;49539;48.160;11.530;2023-03-01T13:28:53;22.17;;;13.33;;
55148;SDS011;49539;48.160;11.530;2023-03-01T13:33:49;22.58;;;12.63;;
55148;SDS011;49539;48.160;11.530;2023-03-01T13:38:57;23.40;;;13.63;;
55148;SDS011;49539;48.160;11.530;2023-03-01T13:46:48;21.15;;;12.73;;
55148;SDS011;49539;48.160;11.530;2023-03-01T13:49:16;22.08;;;13.20;;
55148;SDS011;49539;48.160;11.530;2023-03-01T13:51:41;23.00;;;14.27;;
55148;SDS011;49539;48.160;11.530;2023-03-01T13:54:11;22.27;;;13.15;;
55148;SDS011;49539;48.160;11.530;2023-03-01T13:56:46;22.63;;;12.95;;
55148;SDS011;49539;48.160;11.530;2023-03-01T14:01:37;20.80;;;12.30;;
55148;SDS011;49539;48.160;11.530;2023-03-01T14:04:03;23.67;;;13.70;;
55148;SDS011;49539;48.160;11.530;2023-03-01T14:06:30;22.40;;;13.00;;
55148;SDS011;49539;48.160;11.530;2023-03-01T14:16:53;21.40;;;13.02;;
55148;SDS011;49539;48.160;11.530;2023-03-01T14:19:20;22.70;;;12.50;;
55148;SDS011;49539;48.160;11.530;2023-03-01T14:21:50;20.48;;;12.52;;
55148;SDS011;49539;48.160;11.530;2023-03-01T14:24:25;19.25;;;11.45;;
55148;SDS011;49539;48.160;11.530;2023-03-01T14:26:52;19.65;;;11.82;;
55148;SDS011;49539;48.160;11.530;2023-03-01T14:29:24;22.52;;;12.80;;
55148;SDS011;49539;48.160;11.530;2023-03-01T14:31:50;19.48;;;12.57;;
55148;SDS011;49539;48.160;11.530;2023-03-01T14:34:20;20.33;;;11.55;;
55148;SDS011;49539;48.160;11.530;2023-03-01T14:36:45;19.83;;;11.85;;
55148;SDS011;49539;48.160;11.530;2023-03-01T14:39:17;20.27;;;12.00;;
55148;SDS011;49539;48.160;11.530;2023-03-01T14:41:43;22.90;;;11.88;;
55148;SDS011;49539;48.160;11.530;2023-03-01T14:44:12;21.98;;;11.38;;
55148;SDS011;49539;48.160;11.530;2023-03-01T14:46:40;21.92;;;11.55;;
55148;SDS011;49539;48.160;11.530;2023-03-01T14:51:38;20.23;;;11.55;;
55148;SDS011;49539;48.160;11.530;2023-03-01T14:54:04;19.25;;;12.48;;
55148;SDS011;49539;48.160;11.530;2023-03-01T14:56:42;23.90;;;13.32;;
55148;SDS011;49539;48.160;11.530;2023-03-01T14:59:08;21.88;;;12.75;;
55148;SDS011;49539;48.160;11.530;2023-03-01T15:01:34;20.88;;;11.85;;
55148;SDS011;49539;48.160;11.530;2023-03-01T15:03:59;22.08;;;11.80;;
55148;SDS011;49539;48.160;11.530;2023-03-01T15:06:26;22.95;;;11.68;;
55148;SDS011;49539;48.160;11.530;2023-03-01T15:08:52;21.00;;;11.37;;
55148;SDS011;49539;48.160;11.530;2023-03-01T15:11:26;17.13;;;10.20;;
55148;SDS011;49539;48.160;11.530;2023-03-01T15:13:52;19.85;;;10.98;;
55148;SDS011;49539;48.160;11.530;2023-03-01T15:16:24;21.58;;;11.40;;
55148;SDS011;49539;48.160;11.530;2023-03-01T15:19:00;18.67;;;10.70;;
55148;SDS011;49539;48.160;11.530;2023-03-01T15:21:59;20.67;;;11.23;;
55148;SDS011;49539;48.160;11.530;2023-03-01T15:24:23;25.30;;;9.95;;
55148;SDS011;49539;48.160;11.530;2023-03-01T15:26:50;23.23;;;11.10;;
55148;SDS011;49539;48.160;11.530;2023-03-01T15:29:19;28.52;;;11.77;;
55148;SDS011;49539;48.160;11.530;2023-03-01T15:31:53;22.13;;;10.75;;
55148;SDS011;49539;48.160;11.530;2023-03-01T15:34:24;20.23;;;9.95;;
55148;SDS011;49539;48.160;11.530;2023-03-01T15:36:50;19.85;;;10.38;;
55148;SDS011;49539;48.160;11.530;2023-03-01T15:39:50;23.67;;;11.90;;
55148;SDS011;49539;48.160;11.530;2023-03-01T15:45:06;21.92;;;11.32;;
55148;SDS011;49539;48.160;11.530;2023-03-01T15:47:32;21.75;;;10.80;;
55148;SDS011;49539;48.160;11.530;2023-03-01T15:49:59;21.00;;;11.43;;
55148;SDS011;49539;48.160;11.530;2023-03-01T15:52:35;24.90;;;9.68;;
55148;SDS011;49539;48.160;11.530;2023-03-01T15:55:05;21.60;;;11.15;;
55148;SDS011;49539;48.160;11.530;2023-03-01T15:57:31;26.80;;;10.95;;
55148;SDS011;49539;48.160;11.530;2023-03-01T15:59:56;21.67;;;10.82;;
55148;SDS011;49539;48.160;11.530;2023-03-01T16:02:22;19.48;;;9.55;;